Hunt Field Information

FAA: LND - ICAO: KLND

Hunt Field (Airport) Location

State Wyoming
County Fremont
City Lander
Hunt Field (Airport) is 1 mile south of Lander, WY.
Latitude 42-48-55.3850N
Longitude 108-43-42.8270W
Elevation 5,588ft

Hunt Field METARs

METAR KLND 181253Z AUTO 17004KT 10SM CLR M01/M07 A2982 RMK AO2 SLP104 T10061067
Altimeter 29.82"
Temperature -0.6°C (30.9°F)
Wind 170° at 4KT
Clouds Skies are clear.
Visibility 10.0mi
Time observed: 2022-01-18T12:53:00Z

Hunt Field (Airport) Details

Status Operational
Activation November 1937
Ownership Public
Usage Public
Chart CHEYENNE
ATC on-site No
Beacon schedule sunset-sunrise
Beacon color clear green

Hunt Field (Airport) Contacts

Owner CITY OF LANDER
Owner address 240 LINCOLN ST, LANDER, WY 82520
Owner phone 307-332-2870
Manager MR, & MRS. ROBERT HARSHBURGER
Manager address 1162 LYNCH RD, NEWCASTLE, WY 82701
Manager phone 307-746-2815

Hunt Field Radio Frequencies

Hunt Field (Airport) Radio Frequencies

UNICOM 122.8
Common traffic advisory frequency (CTAF) 122.8